sensor_id;sensor_type;location;lat;lon;timestamp;temperature;humidity
6206;DHT22;3136;48.788;9.772;2023-03-14T00:01:17;8.80;1.00
6206;DHT22;3136;48.788;9.772;2023-03-14T00:03:43;8.90;1.00
6206;DHT22;3136;48.788;9.772;2023-03-14T00:06:10;8.90;1.00
6206;DHT22;3136;48.788;9.772;2023-03-14T00:08:36;8.90;1.00
6206;DHT22;3136;48.788;9.772;2023-03-14T00:11:10;8.90;1.00
6206;DHT22;3136;48.788;9.772;2023-03-14T00:13:36;8.90;1.00
6206;DHT22;3136;48.788;9.772;2023-03-14T00:16:04;8.90;1.00
6206;DHT22;3136;48.788;9.772;2023-03-14T00:18:30;8.90;1.00
6206;DHT22;3136;48.788;9.772;2023-03-14T00:20:58;8.90;1.00
6206;DHT22;3136;48.788;9.772;2023-03-14T00:23:25;8.90;1.00
6206;DHT22;3136;48.788;9.772;2023-03-14T00:25:50;9.00;1.00
6206;DHT22;3136;48.788;9.772;2023-03-14T00:28:16;9.00;1.00
6206;DHT22;3136;48.788;9.772;2023-03-14T00:37:59;9.00;1.00
6206;DHT22;3136;48.788;9.772;2023-03-14T00:40:25;9.00;1.00
6206;DHT22;3136;48.788;9.772;2023-03-14T00:42:50;9.00;1.00
6206;DHT22;3136;48.788;9.772;2023-03-14T00:45:16;9.00;1.00
6206;DHT22;3136;48.788;9.772;2023-03-14T00:50:11;8.90;1.00
6206;DHT22;3136;48.788;9.772;2023-03-14T00:52:36;8.90;1.00
6206;DHT22;3136;48.788;9.772;2023-03-14T00:57:28;8.90;1.00
6206;DHT22;3136;48.788;9.772;2023-03-14T00:59:53;8.90;1.00
6206;DHT22;3136;48.788;9.772;2023-03-14T01:02:19;8.80;1.00
6206;DHT22;3136;48.788;9.772;2023-03-14T01:04:47;8.80;1.00
6206;DHT22;3136;48.788;9.772;2023-03-14T01:07:13;8.80;1.00
6206;DHT22;3136;48.788;9.772;2023-03-14T01:09:38;8.80;1.00
6206;DHT22;3136;48.788;9.772;2023-03-14T01:12:04;8.80;1.00
6206;DHT22;3136;48.788;9.772;2023-03-14T01:14:29;8.80;1.00
6206;DHT22;3136;48.788;9.772;2023-03-14T01:19:28;8.80;1.00
6206;DHT22;3136;48.788;9.772;2023-03-14T01:21:54;8.90;1.00
6206;DHT22;3136;48.788;9.772;2023-03-14T01:24:20;8.80;99.90
6206;DHT22;3136;48.788;9.772;2023-03-14T01:26:46;8.80;99.90
6206;DHT22;3136;48.788;9.772;2023-03-14T01:31:38;8.80;99.90
6206;DHT22;3136;48.788;9.772;2023-03-14T01:41:24;8.80;1.00
6206;DHT22;3136;48.788;9.772;2023-03-14T01:46:35;8.80;1.00
6206;DHT22;3136;48.788;9.772;2023-03-14T01:49:13;8.80;1.00
6206;DHT22;3136;48.788;9.772;2023-03-14T01:54:14;8.70;99.90
6206;DHT22;3136;48.788;9.772;2023-03-14T01:56:44;8.60;1.00
6206;DHT22;3136;48.788;9.772;2023-03-14T01:59:12;8.60;1.00
6206;DHT22;3136;48.788;9.772;2023-03-14T02:01:40;8.60;1.00
6206;DHT22;3136;48.788;9.772;2023-03-14T02:04:07;8.50;91.00
6206;DHT22;3136;48.788;9.772;2023-03-14T02:06:50;8.50;99.90
6206;DHT22;3136;48.788;9.772;2023-03-14T02:09:16;8.50;99.90
6206;DHT22;3136;48.788;9.772;2023-03-14T02:11:43;8.50;99.90
6206;DHT22;3136;48.788;9.772;2023-03-14T02:14:16;8.40;99.90
6206;DHT22;3136;48.788;9.772;2023-03-14T02:19:11;8.40;84.70
6206;DHT22;3136;48.788;9.772;2023-03-14T02:21:42;8.40;92.60
6206;DHT22;3136;48.788;9.772;2023-03-14T02:24:17;8.30;73.30
6206;DHT22;3136;48.788;9.772;2023-03-14T02:27:11;8.30;99.90
6206;DHT22;3136;48.788;9.772;2023-03-14T02:29:44;8.40;99.90
6206;DHT22;3136;48.788;9.772;2023-03-14T02:32:11;8.40;1.00
6206;DHT22;3136;48.788;9.772;2023-03-14T02:37:04;8.40;1.00
6206;DHT22;3136;48.788;9.772;2023-03-14T02:39:40;8.40;1.00
6206;DHT22;3136;48.788;9.772;2023-03-14T02:44:33;8.30;1.00
6206;DHT22;3136;48.788;9.772;2023-03-14T02:49:27;8.30;8.20
6206;DHT22;3136;48.788;9.772;2023-03-14T02:51:54;8.30;39.00
6206;DHT22;3136;48.788;9.772;2023-03-14T02:54:20;8.30;91.60
6206;DHT22;3136;48.788;9.772;2023-03-14T02:56:46;8.30;67.70
6206;DHT22;3136;48.788;9.772;2023-03-14T03:13:47;8.10;1.00
6206;DHT22;3136;48.788;9.772;2023-03-14T03:16:13;8.00;80.70
6206;DHT22;3136;48.788;9.772;2023-03-14T03:18:40;8.00;99.90
6206;DHT22;3136;48.788;9.772;2023-03-14T03:21:06;8.00;99.90
6206;DHT22;3136;48.788;9.772;2023-03-14T03:28:26;7.90;99.90
6206;DHT22;3136;48.788;9.772;2023-03-14T03:30:51;7.90;99.90
6206;DHT22;3136;48.788;9.772;2023-03-14T03:33:17;7.80;99.90
6206;DHT22;3136;48.788;9.772;2023-03-14T03:35:44;7.80;99.90
6206;DHT22;3136;48.788;9.772;2023-03-14T03:38:11;7.80;1.00
6206;DHT22;3136;48.788;9.772;2023-03-14T03:40:37;7.70;1.00
6206;DHT22;3136;48.788;9.772;2023-03-14T03:45:29;7.70;1.00
6206;DHT22;3136;48.788;9.772;2023-03-14T03:52:46;7.60;1.00
6206;DHT22;3136;48.788;9.772;2023-03-14T03:55:12;7.60;1.00
6206;DHT22;3136;48.788;9.772;2023-03-14T03:57:38;7.60;1.00
6206;DHT22;3136;48.788;9.772;2023-03-14T04:00:05;7.60;1.00
6206;DHT22;3136;48.788;9.772;2023-03-14T04:09:49;7.40;1.00
6206;DHT22;3136;48.788;9.772;2023-03-14T04:19:32;7.30;1.00
6206;DHT22;3136;48.788;9.772;2023-03-14T04:21:58;7.30;1.00
6206;DHT22;3136;48.788;9.772;2023-03-14T04:24:24;7.40;1.00
6206;DHT22;3136;48.788;9.772;2023-03-14T04:38:59;7.60;1.00
6206;DHT22;3136;48.788;9.772;2023-03-14T04:41:25;7.60;1.00
6206;DHT22;3136;48.788;9.772;2023-03-14T04:43:50;7.70;1.00
6206;DHT22;3136;48.788;9.772;2023-03-14T04:53:34;7.80;1.00
6206;DHT22;3136;48.788;9.772;2023-03-14T04:56:01;7.70;99.90
6206;DHT22;3136;48.788;9.772;2023-03-14T05:03:19;7.60;1.00
6206;DHT22;3136;48.788;9.772;2023-03-14T05:08:11;7.50;1.00
6206;DHT22;3136;48.788;9.772;2023-03-14T05:13:03;7.30;1.00
6206;DHT22;3136;48.788;9.772;2023-03-14T05:27:38;7.30;54.60
6206;DHT22;3136;48.788;9.772;2023-03-14T05:30:05;7.30;85.60
6206;DHT22;3136;48.788;9.772;2023-03-14T05:32:31;7.20;99.90
6206;DHT22;3136;48.788;9.772;2023-03-14T05:37:27;7.20;99.90
6206;DHT22;3136;48.788;9.772;2023-03-14T05:42:19;7.20;99.90
6206;DHT22;3136;48.788;9.772;2023-03-14T05:44:45;7.20;99.90
6206;DHT22;3136;48.788;9.772;2023-03-14T05:49:36;7.20;1.00
6206;DHT22;3136;48.788;9.772;2023-03-14T05:52:02;7.10;1.00
6206;DHT22;3136;48.788;9.772;2023-03-14T05:54:28;7.10;1.00
6206;DHT22;3136;48.788;9.772;2023-03-14T06:01:45;7.10;1.00
6206;DHT22;3136;48.788;9.772;2023-03-14T06:04:11;7.10;4.10
6206;DHT22;3136;48.788;9.772;2023-03-14T06:06:36;7.20;99.90
6206;DHT22;3136;48.788;9.772;2023-03-14T06:30:59;7.60;99.90
6206;DHT22;3136;48.788;9.772;2023-03-14T06:33:25;7.60;1.00
6206;DHT22;3136;48.788;9.772;2023-03-14T06:48:00;7.40;99.90
6206;DHT22;3136;48.788;9.772;2023-03-14T06:50:26;7.30;67.20
6206;DHT22;3136;48.788;9.772;2023-03-14T07:00:11;7.20;1.00
6206;DHT22;3136;48.788;9.772;2023-03-14T07:19:39;7.30;1.00
6206;DHT22;3136;48.788;9.772;2023-03-14T07:22:05;7.30;1.00
6206;DHT22;3136;48.788;9.772;2023-03-14T07:24:30;7.30;99.90
6206;DHT22;3136;48.788;9.772;2023-03-14T07:26:56;7.30;1.00
6206;DHT22;3136;48.788;9.772;2023-03-14T07:34:13;7.70;1.00
6206;DHT22;3136;48.788;9.772;2023-03-14T07:36:39;7.90;99.90
6206;DHT22;3136;48.788;9.772;2023-03-14T07:39:05;8.00;1.00
6206;DHT22;3136;48.788;9.772;2023-03-14T07:41:31;8.10;99.90
6206;DHT22;3136;48.788;9.772;2023-03-14T07:43:57;8.00;1.00
6206;DHT22;3136;48.788;9.772;2023-03-14T07:48:48;8.00;63.10
6206;DHT22;3136;48.788;9.772;2023-03-14T07:53:40;8.10;1.00
6206;DHT22;3136;48.788;9.772;2023-03-14T07:56:06;8.20;1.00
6206;DHT22;3136;48.788;9.772;2023-03-14T07:58:32;8.40;99.90
6206;DHT22;3136;48.788;9.772;2023-03-14T08:00:59;8.60;1.00
6206;DHT22;3136;48.788;9.772;2023-03-14T08:05:51;8.90;99.90
6206;DHT22;3136;48.788;9.772;2023-03-14T08:08:17;8.90;99.90
6206;DHT22;3136;48.788;9.772;2023-03-14T08:15:35;9.20;1.00
6206;DHT22;3136;48.788;9.772;2023-03-14T08:18:02;9.20;1.00
6206;DHT22;3136;48.788;9.772;2023-03-14T08:20:29;9.40;1.00
6206;DHT22;3136;48.788;9.772;2023-03-14T08:22:56;9.50;1.00
6206;DHT22;3136;48.788;9.772;2023-03-14T08:25:23;9.60;1.00
6206;DHT22;3136;48.788;9.772;2023-03-14T08:30:17;9.90;99.90
6206;DHT22;3136;48.788;9.772;2023-03-14T08:35:08;10.00;99.90
6206;DHT22;3136;48.788;9.772;2023-03-14T08:37:35;10.10;99.90
6206;DHT22;3136;48.788;9.772;2023-03-14T08:40:02;10.10;99.90
6206;DHT22;3136;48.788;9.772;2023-03-14T08:42:32;10.30;99.90
6206;DHT22;3136;48.788;9.772;2023-03-14T08:44:58;10.60;99.90
6206;DHT22;3136;48.788;9.772;2023-03-14T08:49:49;10.50;99.90
6206;DHT22;3136;48.788;9.772;2023-03-14T08:54:43;10.40;99.90
6206;DHT22;3136;48.788;9.772;2023-03-14T08:59:35;10.80;99.90
6206;DHT22;3136;48.788;9.772;2023-03-14T09:06:55;11.20;99.90
6206;DHT22;3136;48.788;9.772;2023-03-14T09:09:20;11.40;99.90
6206;DHT22;3136;48.788;9.772;2023-03-14T09:11:47;11.60;99.90
6206;DHT22;3136;48.788;9.772;2023-03-14T09:14:13;11.90;99.90
6206;DHT22;3136;48.788;9.772;2023-03-14T09:16:39;12.10;99.90
6206;DHT22;3136;48.788;9.772;2023-03-14T09:19:04;12.40;99.90
6206;DHT22;3136;48.788;9.772;2023-03-14T09:21:31;12.90;91.70
6206;DHT22;3136;48.788;9.772;2023-03-14T09:23:56;13.10;91.60
6206;DHT22;3136;48.788;9.772;2023-03-14T09:31:14;13.20;89.80
6206;DHT22;3136;48.788;9.772;2023-03-14T09:33:40;13.20;85.90
6206;DHT22;3136;48.788;9.772;2023-03-14T09:36:06;13.30;75.50
6206;DHT22;3136;48.788;9.772;2023-03-14T09:38:33;13.30;69.20
6206;DHT22;3136;48.788;9.772;2023-03-14T09:41:00;13.40;70.50
6206;DHT22;3136;48.788;9.772;2023-03-14T09:43:29;13.50;79.80
6206;DHT22;3136;48.788;9.772;2023-03-14T09:45:57;13.80;62.10
6206;DHT22;3136;48.788;9.772;2023-03-14T09:48:29;13.80;84.00
6206;DHT22;3136;48.788;9.772;2023-03-14T09:50:57;14.00;90.60
6206;DHT22;3136;48.788;9.772;2023-03-14T09:53:32;14.40;58.70
6206;DHT22;3136;48.788;9.772;2023-03-14T09:55:59;14.40;81.10
6206;DHT22;3136;48.788;9.772;2023-03-14T09:58:25;14.70;75.70
6206;DHT22;3136;48.788;9.772;2023-03-14T10:00:53;14.70;74.20
6206;DHT22;3136;48.788;9.772;2023-03-14T10:03:31;14.40;52.10
6206;DHT22;3136;48.788;9.772;2023-03-14T10:05:57;15.50;76.30
6206;DHT22;3136;48.788;9.772;2023-03-14T10:08:23;14.40;76.00
6206;DHT22;3136;48.788;9.772;2023-03-14T10:10:48;14.50;72.80
6206;DHT22;3136;48.788;9.772;2023-03-14T10:13:26;14.60;73.20
6206;DHT22;3136;48.788;9.772;2023-03-14T10:16:00;14.90;72.40
6206;DHT22;3136;48.788;9.772;2023-03-14T10:18:29;15.10;68.20
6206;DHT22;3136;48.788;9.772;2023-03-14T10:23:33;15.00;62.40
6206;DHT22;3136;48.788;9.772;2023-03-14T10:26:28;14.70;65.50
6206;DHT22;3136;48.788;9.772;2023-03-14T10:29:11;14.00;45.80
6206;DHT22;3136;48.788;9.772;2023-03-14T10:34:20;14.00;49.50
6206;DHT22;3136;48.788;9.772;2023-03-14T10:36:58;14.50;49.60
6206;DHT22;3136;48.788;9.772;2023-03-14T10:39:37;14.60;70.70
6206;DHT22;3136;48.788;9.772;2023-03-14T10:42:25;15.00;62.30
6206;DHT22;3136;48.788;9.772;2023-03-14T10:44:57;14.90;66.10
6206;DHT22;3136;48.788;9.772;2023-03-14T10:47:26;14.80;90.00
6206;DHT22;3136;48.788;9.772;2023-03-14T10:49:53;15.20;65.80
6206;DHT22;3136;48.788;9.772;2023-03-14T10:52:21;16.00;57.90
6206;DHT22;3136;48.788;9.772;2023-03-14T10:54:56;17.00;54.30
6206;DHT22;3136;48.788;9.772;2023-03-14T10:57:22;17.70;52.70
6206;DHT22;3136;48.788;9.772;2023-03-14T10:59:48;18.70;50.00
6206;DHT22;3136;48.788;9.772;2023-03-14T11:05:11;19.60;47.70
6206;DHT22;3136;48.788;9.772;2023-03-14T11:07:41;20.10;47.40
6206;DHT22;3136;48.788;9.772;2023-03-14T11:10:31;20.30;45.30
6206;DHT22;3136;48.788;9.772;2023-03-14T11:18:42;17.00;44.00
6206;DHT22;3136;48.788;9.772;2023-03-14T11:21:13;16.20;44.10
6206;DHT22;3136;48.788;9.772;2023-03-14T11:23:54;15.70;47.40
6206;DHT22;3136;48.788;9.772;2023-03-14T11:26:42;15.20;46.20
6206;DHT22;3136;48.788;9.772;2023-03-14T11:29:31;14.20;34.30
6206;DHT22;3136;48.788;9.772;2023-03-14T11:32:04;13.80;46.50
6206;DHT22;3136;48.788;9.772;2023-03-14T11:34:52;13.10;67.40
6206;DHT22;3136;48.788;9.772;2023-03-14T11:37:39;12.30;99.90
6206;DHT22;3136;48.788;9.772;2023-03-14T11:40:23;11.80;99.90
6206;DHT22;3136;48.788;9.772;2023-03-14T11:43:13;11.40;99.90
6206;DHT22;3136;48.788;9.772;2023-03-14T11:45:42;11.10;99.90
6206;DHT22;3136;48.788;9.772;2023-03-14T11:48:31;10.90;99.90
6206;DHT22;3136;48.788;9.772;2023-03-14T11:51:01;10.70;1.00
6206;DHT22;3136;48.788;9.772;2023-03-14T11:56:48;10.50;1.00
6206;DHT22;3136;48.788;9.772;2023-03-14T11:59:20;10.30;1.00
6206;DHT22;3136;48.788;9.772;2023-03-14T12:02:03;10.40;1.00
6206;DHT22;3136;48.788;9.772;2023-03-14T12:07:23;10.10;1.00
6206;DHT22;3136;48.788;9.772;2023-03-14T12:09:51;10.10;99.90
6206;DHT22;3136;48.788;9.772;2023-03-14T12:12:20;10.10;99.90
6206;DHT22;3136;48.788;9.772;2023-03-14T12:14:58;10.00;97.20
6206;DHT22;3136;48.788;9.772;2023-03-14T12:17:34;10.00;99.90
6206;DHT22;3136;48.788;9.772;2023-03-14T12:22:50;10.10;99.90
6206;DHT22;3136;48.788;9.772;2023-03-14T12:25:25;10.10;1.00
6206;DHT22;3136;48.788;9.772;2023-03-14T12:38:11;9.80;1.00
6206;DHT22;3136;48.788;9.772;2023-03-14T12:43:30;9.70;99.90
6206;DHT22;3136;48.788;9.772;2023-03-14T12:46:19;9.60;1.00
6206;DHT22;3136;48.788;9.772;2023-03-14T12:51:16;9.50;98.30
6206;DHT22;3136;48.788;9.772;2023-03-14T12:56:51;9.40;1.00
6206;DHT22;3136;48.788;9.772;2023-03-14T12:59:30;9.40;99.90
6206;DHT22;3136;48.788;9.772;2023-03-14T13:02:29;9.50;99.90
6206;DHT22;3136;48.788;9.772;2023-03-14T13:05:25;9.70;1.00
6206;DHT22;3136;48.788;9.772;2023-03-14T13:15:46;10.30;99.90
6206;DHT22;3136;48.788;9.772;2023-03-14T13:18:16;10.30;99.90
6206;DHT22;3136;48.788;9.772;2023-03-14T13:20:46;10.30;99.90
6206;DHT22;3136;48.788;9.772;2023-03-14T13:23:29;10.10;99.90
6206;DHT22;3136;48.788;9.772;2023-03-14T13:28:21;11.30;99.90
6206;DHT22;3136;48.788;9.772;2023-03-14T13:30:48;12.50;99.90
6206;DHT22;3136;48.788;9.772;2023-03-14T13:33:18;13.60;65.20
6206;DHT22;3136;48.788;9.772;2023-03-14T13:35:47;14.00;55.60
6206;DHT22;3136;48.788;9.772;2023-03-14T13:38:22;14.10;46.80
6206;DHT22;3136;48.788;9.772;2023-03-14T13:40:50;14.10;48.00
6206;DHT22;3136;48.788;9.772;2023-03-14T13:43:35;14.10;45.70
6206;DHT22;3136;48.788;9.772;2023-03-14T13:48:29;12.40;41.60
6206;DHT22;3136;48.788;9.772;2023-03-14T13:55:47;10.90;64.40
6206;DHT22;3136;48.788;9.772;2023-03-14T13:58:28;11.10;50.80
6206;DHT22;3136;48.788;9.772;2023-03-14T14:01:00;10.90;44.40
6206;DHT22;3136;48.788;9.772;2023-03-14T14:03:27;10.70;51.10
6206;DHT22;3136;48.788;9.772;2023-03-14T14:05:56;10.50;41.10
6206;DHT22;3136;48.788;9.772;2023-03-14T14:10:48;10.80;42.80
6206;DHT22;3136;48.788;9.772;2023-03-14T14:13:16;10.90;35.70
6206;DHT22;3136;48.788;9.772;2023-03-14T14:15:48;10.80;41.30
6206;DHT22;3136;48.788;9.772;2023-03-14T14:18:18;10.80;39.50
6206;DHT22;3136;48.788;9.772;2023-03-14T14:20:47;10.50;36.10
6206;DHT22;3136;48.788;9.772;2023-03-14T14:23:19;10.90;35.60
6206;DHT22;3136;48.788;9.772;2023-03-14T14:28:26;11.00;31.70
6206;DHT22;3136;48.788;9.772;2023-03-14T14:33:57;11.60;30.00
6206;DHT22;3136;48.788;9.772;2023-03-14T14:36:38;11.40;28.60
6206;DHT22;3136;48.788;9.772;2023-03-14T14:39:23;10.70;29.60
6206;DHT22;3136;48.788;9.772;2023-03-14T14:41:50;10.20;28.40
6206;DHT22;3136;48.788;9.772;2023-03-14T14:44:21;9.80;30.20
6206;DHT22;3136;48.788;9.772;2023-03-14T14:46:50;9.60;29.50
6206;DHT22;3136;48.788;9.772;2023-03-14T14:49:18;9.40;28.40
6206;DHT22;3136;48.788;9.772;2023-03-14T14:51:48;9.30;27.30
6206;DHT22;3136;48.788;9.772;2023-03-14T14:54:17;9.30;28.10
6206;DHT22;3136;48.788;9.772;2023-03-14T14:56:51;9.20;28.10
6206;DHT22;3136;48.788;9.772;2023-03-14T14:59:25;9.30;26.80
6206;DHT22;3136;48.788;9.772;2023-03-14T15:01:56;9.20;27.20
6206;DHT22;3136;48.788;9.772;2023-03-14T15:04:22;9.20;27.10
6206;DHT22;3136;48.788;9.772;2023-03-14T15:06:49;9.20;27.00
6206;DHT22;3136;48.788;9.772;2023-03-14T15:09:16;9.20;26.70
6206;DHT22;3136;48.788;9.772;2023-03-14T15:14:11;9.20;26.60
6206;DHT22;3136;48.788;9.772;2023-03-14T15:16:36;9.10;26.00
6206;DHT22;3136;48.788;9.772;2023-03-14T15:19:10;9.10;43.60
6206;DHT22;3136;48.788;9.772;2023-03-14T15:21:36;9.00;26.40
6206;DHT22;3136;48.788;9.772;2023-03-14T15:24:04;9.00;44.00
6206;DHT22;3136;48.788;9.772;2023-03-14T15:26:30;9.00;42.70
6206;DHT22;3136;48.788;9.772;2023-03-14T15:28:56;9.00;42.10
6206;DHT22;3136;48.788;9.772;2023-03-14T15:31:22;9.00;43.10
6206;DHT22;3136;48.788;9.772;2023-03-14T15:33:48;9.00;42.40
6206;DHT22;3136;48.788;9.772;2023-03-14T15:36:23;8.90;41.40
6206;DHT22;3136;48.788;9.772;2023-03-14T15:38:50;8.90;41.30
6206;DHT22;3136;48.788;9.772;2023-03-14T15:41:17;8.90;41.60
6206;DHT22;3136;48.788;9.772;2023-03-14T15:43:42;8.90;26.20
6206;DHT22;3136;48.788;9.772;2023-03-14T15:46:12;8.90;42.80
6206;DHT22;3136;48.788;9.772;2023-03-14T15:48:38;9.00;41.90
6206;DHT22;3136;48.788;9.772;2023-03-14T15:51:04;9.00;42.20
6206;DHT22;3136;48.788;9.772;2023-03-14T15:53:30;9.10;44.00
6206;DHT22;3136;48.788;9.772;2023-03-14T15:55:55;9.40;42.70
6206;DHT22;3136;48.788;9.772;2023-03-14T15:58:21;9.80;40.80
6206;DHT22;3136;48.788;9.772;2023-03-14T16:00:47;10.10;41.80
6206;DHT22;3136;48.788;9.772;2023-03-14T16:03:13;10.10;40.00
6206;DHT22;3136;48.788;9.772;2023-03-14T16:05:41;10.00;39.10
6206;DHT22;3136;48.788;9.772;2023-03-14T16:08:07;9.90;39.80
6206;DHT22;3136;48.788;9.772;2023-03-14T16:10:33;9.80;40.00
6206;DHT22;3136;48.788;9.772;2023-03-14T16:12:59;9.70;39.90
6206;DHT22;3136;48.788;9.772;2023-03-14T16:15:24;9.60;40.20
6206;DHT22;3136;48.788;9.772;2023-03-14T16:17:53;9.60;40.30
6206;DHT22;3136;48.788;9.772;2023-03-14T16:20:19;9.40;44.70
6206;DHT22;3136;48.788;9.772;2023-03-14T16:22:45;9.40;39.90
6206;DHT22;3136;48.788;9.772;2023-03-14T16:25:11;9.30;39.70
6206;DHT22;3136;48.788;9.772;2023-03-14T16:27:37;9.20;39.40
6206;DHT22;3136;48.788;9.772;2023-03-14T16:30:04;9.10;41.20
6206;DHT22;3136;48.788;9.772;2023-03-14T16:32:29;8.90;40.80
6206;DHT22;3136;48.788;9.772;2023-03-14T16:34:55;8.80;42.10
6206;DHT22;3136;48.788;9.772;2023-03-14T16:37:25;8.70;41.20
6206;DHT22;3136;48.788;9.772;2023-03-14T16:39:52;8.60;41.60
6206;DHT22;3136;48.788;9.772;2023-03-14T16:42:18;8.50;41.00
6206;DHT22;3136;48.788;9.772;2023-03-14T16:44:44;8.50;41.50
6206;DHT22;3136;48.788;9.772;2023-03-14T16:47:10;8.30;43.90
6206;DHT22;3136;48.788;9.772;2023-03-14T16:49:35;8.30;44.00
6206;DHT22;3136;48.788;9.772;2023-03-14T16:52:01;8.20;43.50
6206;DHT22;3136;48.788;9.772;2023-03-14T16:54:26;8.20;43.00
6206;DHT22;3136;48.788;9.772;2023-03-14T16:56:52;8.10;65.30
6206;DHT22;3136;48.788;9.772;2023-03-14T16:59:18;8.00;45.00
6206;DHT22;3136;48.788;9.772;2023-03-14T17:01:44;8.00;44.50
6206;DHT22;3136;48.788;9.772;2023-03-14T17:04:10;7.90;44.40
6206;DHT22;3136;48.788;9.772;2023-03-14T17:06:36;7.90;43.60
6206;DHT22;3136;48.788;9.772;2023-03-14T17:09:03;8.00;42.80
6206;DHT22;3136;48.788;9.772;2023-03-14T17:11:30;8.10;42.40
6206;DHT22;3136;48.788;9.772;2023-03-14T17:13:58;8.20;43.10
6206;DHT22;3136;48.788;9.772;2023-03-14T17:16:24;8.20;41.90
6206;DHT22;3136;48.788;9.772;2023-03-14T17:18:50;8.20;43.30
6206;DHT22;3136;48.788;9.772;2023-03-14T17:21:15;8.20;45.10
6206;DHT22;3136;48.788;9.772;2023-03-14T17:23:41;8.10;43.70
6206;DHT22;3136;48.788;9.772;2023-03-14T17:26:07;8.10;47.40
6206;DHT22;3136;48.788;9.772;2023-03-14T17:28:34;8.00;47.30
6206;DHT22;3136;48.788;9.772;2023-03-14T17:31:01;8.00;48.70
6206;DHT22;3136;48.788;9.772;2023-03-14T17:33:27;8.10;48.30
6206;DHT22;3136;48.788;9.772;2023-03-14T17:35:53;8.00;50.00
6206;DHT22;3136;48.788;9.772;2023-03-14T17:38:18;8.00;47.40
6206;DHT22;3136;48.788;9.772;2023-03-14T17:40:47;8.00;50.10
6206;DHT22;3136;48.788;9.772;2023-03-14T17:43:13;8.00;51.00
6206;DHT22;3136;48.788;9.772;2023-03-14T17:45:38;8.00;50.80
6206;DHT22;3136;48.788;9.772;2023-03-14T17:48:08;8.10;48.90
6206;DHT22;3136;48.788;9.772;2023-03-14T17:50:34;8.00;52.00
6206;DHT22;3136;48.788;9.772;2023-03-14T17:52:59;8.00;52.20
6206;DHT22;3136;48.788;9.772;2023-03-14T17:55:25;8.10;51.70
6206;DHT22;3136;48.788;9.772;2023-03-14T17:57:51;8.10;49.90
6206;DHT22;3136;48.788;9.772;2023-03-14T18:00:16;8.00;53.00
6206;DHT22;3136;48.788;9.772;2023-03-14T18:02:42;8.00;55.60
6206;DHT22;3136;48.788;9.772;2023-03-14T18:05:08;7.90;61.50
6206;DHT22;3136;48.788;9.772;2023-03-14T18:07:34;7.90;66.60
6206;DHT22;3136;48.788;9.772;2023-03-14T18:10:00;8.00;69.80
6206;DHT22;3136;48.788;9.772;2023-03-14T18:12:26;7.90;75.40
6206;DHT22;3136;48.788;9.772;2023-03-14T18:14:53;7.80;78.90
6206;DHT22;3136;48.788;9.772;2023-03-14T18:17:18;7.70;90.00
6206;DHT22;3136;48.788;9.772;2023-03-14T18:19:44;7.60;99.90
6206;DHT22;3136;48.788;9.772;2023-03-14T18:22:10;7.60;93.30
6206;DHT22;3136;48.788;9.772;2023-03-14T18:24:36;7.50;92.80
6206;DHT22;3136;48.788;9.772;2023-03-14T18:27:03;7.60;95.20
6206;DHT22;3136;48.788;9.772;2023-03-14T18:29:28;7.50;97.00
6206;DHT22;3136;48.788;9.772;2023-03-14T18:31:54;7.40;99.40
6206;DHT22;3136;48.788;9.772;2023-03-14T18:34:21;7.40;99.90
6206;DHT22;3136;48.788;9.772;2023-03-14T18:36:46;7.40;99.90
6206;DHT22;3136;48.788;9.772;2023-03-14T18:39:12;7.40;99.90
6206;DHT22;3136;48.788;9.772;2023-03-14T18:41:38;7.30;99.90
6206;DHT22;3136;48.788;9.772;2023-03-14T18:44:04;7.30;99.90
6206;DHT22;3136;48.788;9.772;2023-03-14T18:46:30;7.20;99.90
6206;DHT22;3136;48.788;9.772;2023-03-14T18:48:56;7.20;99.90
6206;DHT22;3136;48.788;9.772;2023-03-14T18:51:24;7.10;99.90
6206;DHT22;3136;48.788;9.772;2023-03-14T18:53:56;7.10;99.90
6206;DHT22;3136;48.788;9.772;2023-03-14T18:56:26;7.00;99.90
6206;DHT22;3136;48.788;9.772;2023-03-14T18:58:52;6.90;99.90
6206;DHT22;3136;48.788;9.772;2023-03-14T19:01:18;6.70;99.90
6206;DHT22;3136;48.788;9.772;2023-03-14T19:03:45;6.60;99.90
6206;DHT22;3136;48.788;9.772;2023-03-14T19:06:14;6.40;99.90
6206;DHT22;3136;48.788;9.772;2023-03-14T19:08:40;6.20;99.90
6206;DHT22;3136;48.788;9.772;2023-03-14T19:11:09;6.10;99.90
6206;DHT22;3136;48.788;9.772;2023-03-14T19:13:36;6.00;99.90
6206;DHT22;3136;48.788;9.772;2023-03-14T19:16:03;6.00;99.90
6206;DHT22;3136;48.788;9.772;2023-03-14T19:18:29;6.00;99.90
6206;DHT22;3136;48.788;9.772;2023-03-14T19:20:57;5.90;99.90
6206;DHT22;3136;48.788;9.772;2023-03-14T19:23:23;5.90;99.90
6206;DHT22;3136;48.788;9.772;2023-03-14T19:25:50;5.90;99.90
6206;DHT22;3136;48.788;9.772;2023-03-14T19:28:16;5.80;99.90
6206;DHT22;3136;48.788;9.772;2023-03-14T19:30:42;5.70;99.90
6206;DHT22;3136;48.788;9.772;2023-03-14T19:33:12;5.70;99.90
6206;DHT22;3136;48.788;9.772;2023-03-14T19:35:38;5.60;99.90
6206;DHT22;3136;48.788;9.772;2023-03-14T19:38:05;5.70;99.90
6206;DHT22;3136;48.788;9.772;2023-03-14T19:40:31;5.70;99.90
6206;DHT22;3136;48.788;9.772;2023-03-14T19:42:56;5.70;99.90
6206;DHT22;3136;48.788;9.772;2023-03-14T19:45:22;5.70;99.90
6206;DHT22;3136;48.788;9.772;2023-03-14T19:47:48;5.70;99.90
6206;DHT22;3136;48.788;9.772;2023-03-14T19:50:14;5.60;99.90
6206;DHT22;3136;48.788;9.772;2023-03-14T19:52:40;5.50;99.90
6206;DHT22;3136;48.788;9.772;2023-03-14T19:55:10;5.50;99.90
6206;DHT22;3136;48.788;9.772;2023-03-14T19:57:37;5.40;99.90
6206;DHT22;3136;48.788;9.772;2023-03-14T20:00:03;6.30;99.90
6206;DHT22;3136;48.788;9.772;2023-03-14T20:02:36;5.30;99.90
6206;DHT22;3136;48.788;9.772;2023-03-14T20:05:01;5.30;99.90
6206;DHT22;3136;48.788;9.772;2023-03-14T20:07:27;5.50;99.90
6206;DHT22;3136;48.788;9.772;2023-03-14T20:09:52;5.20;99.90
6206;DHT22;3136;48.788;9.772;2023-03-14T20:12:18;5.20;99.90
6206;DHT22;3136;48.788;9.772;2023-03-14T20:14:43;5.20;99.90
6206;DHT22;3136;48.788;9.772;2023-03-14T20:17:09;5.20;99.90
6206;DHT22;3136;48.788;9.772;2023-03-14T20:19:35;5.20;99.90
6206;DHT22;3136;48.788;9.772;2023-03-14T20:22:00;5.20;99.90
6206;DHT22;3136;48.788;9.772;2023-03-14T20:24:26;5.20;99.90
6206;DHT22;3136;48.788;9.772;2023-03-14T20:26:51;5.20;99.90
6206;DHT22;3136;48.788;9.772;2023-03-14T20:29:17;5.20;99.90
6206;DHT22;3136;48.788;9.772;2023-03-14T20:31:43;5.30;99.90
6206;DHT22;3136;48.788;9.772;2023-03-14T20:34:09;5.30;99.90
6206;DHT22;3136;48.788;9.772;2023-03-14T20:36:34;5.30;99.90
6206;DHT22;3136;48.788;9.772;2023-03-14T20:39:00;5.30;99.90
6206;DHT22;3136;48.788;9.772;2023-03-14T20:41:26;5.20;99.90
6206;DHT22;3136;48.788;9.772;2023-03-14T20:43:52;5.10;99.90
6206;DHT22;3136;48.788;9.772;2023-03-14T20:46:18;5.00;99.90
6206;DHT22;3136;48.788;9.772;2023-03-14T20:48:43;5.00;99.90
6206;DHT22;3136;48.788;9.772;2023-03-14T20:51:10;4.90;99.90
6206;DHT22;3136;48.788;9.772;2023-03-14T20:53:37;4.90;99.90
6206;DHT22;3136;48.788;9.772;2023-03-14T20:56:03;4.80;99.90
6206;DHT22;3136;48.788;9.772;2023-03-14T20:58:28;4.90;99.90
6206;DHT22;3136;48.788;9.772;2023-03-14T21:00:55;4.90;99.90
6206;DHT22;3136;48.788;9.772;2023-03-14T21:03:21;4.90;99.90
6206;DHT22;3136;48.788;9.772;2023-03-14T21:05:48;5.00;99.90
6206;DHT22;3136;48.788;9.772;2023-03-14T21:08:15;5.00;99.90
6206;DHT22;3136;48.788;9.772;2023-03-14T21:10:41;5.10;99.90
6206;DHT22;3136;48.788;9.772;2023-03-14T21:13:07;5.20;99.90
6206;DHT22;3136;48.788;9.772;2023-03-14T21:15:34;5.10;99.90
6206;DHT22;3136;48.788;9.772;2023-03-14T21:18:00;5.00;1.00
6206;DHT22;3136;48.788;9.772;2023-03-14T21:20:31;4.70;1.00
6206;DHT22;3136;48.788;9.772;2023-03-14T21:22:56;4.50;1.00
6206;DHT22;3136;48.788;9.772;2023-03-14T21:25:22;4.40;1.00